| time (UTC) | temp C | wind direction | speed KPH | gust KPH | rain 1hr cm | rain 24hr cm | rain mn cm | humidity % | barometer mb |
| 20260506192624 | 12 | 73 | 11.3 | 16.1 | 0.03 | 0.20 | 0.20 | 94 | 1007.0 |
| 20260506192116 | 12 | 57 | 14.5 | 24.1 | 0.05 | 0.20 | 0.20 | 94 | 1006.9 |
| 20260506191610 | 12 | 55 | 17.7 | 24.1 | 0.05 | 0.20 | 0.20 | 94 | 1007.1 |
| 20260506191104 | 12 | 59 | 19.3 | 24.1 | 0.08 | 0.20 | 0.20 | 94 | 1007.2 |
| 20260506190558 | 12 | 53 | 20.9 | 24.1 | 0.08 | 0.20 | 0.20 | 94 | 1007.3 |
| 20260506190320 | 12 | 50 | 20.9 | 24.1 | 0.08 | 0.20 | 0.20 | 94 | 1007.4 |
| 20260506185546 | 12 | 57 | 20.9 | 25.7 | 0.10 | 0.20 | 0.20 | 94 | 1007.5 |
| 20260506185041 | 12 | 59 | 20.9 | 25.7 | 0.10 | 0.20 | 0.20 | 94 | 1007.4 |
| 20260506184534 | 12 | 53 | 20.9 | 24.1 | 0.13 | 0.20 | 0.20 | 94 | 1007.6 |
| 20260506184028 | 12 | 55 | 20.9 | 27.4 | 0.13 | 0.20 | 0.20 | 94 | 1007.7 |
| 20260506183522 | 12 | 63 | 20.9 | 27.4 | 0.15 | 0.20 | 0.20 | 94 | 1007.4 |
| 20260506183016 | 12 | 54 | 20.9 | 27.4 | 0.13 | 0.18 | 0.18 | 93 | 1007.5 |
| 20260506182512 | 12 | 53 | 20.9 | 27.4 | 0.15 | 0.18 | 0.18 | 93 | 1007.6 |
| 20260506182004 | 12 | 40 | 19.3 | 25.7 | 0.13 | 0.15 | 0.15 | 93 | 1007.6 |
| 20260506181457 | 12 | 51 | 16.1 | 24.1 | 0.15 | 0.15 | 0.15 | 93 | 1007.7 |
| 20260506180952 | 12 | 54 | 11.3 | 20.9 | 0.13 | 0.13 | 0.13 | 93 | 1007.8 |
| 20260506180446 | 12 | 57 | 6.4 | 12.9 | 0.13 | 0.13 | 0.13 | 92 | 1007.8 |
| 20260506175942 | 12 | 37 | 6.4 | 12.9 | 0.10 | 0.10 | 0.13 | 91 | 1007.8 |
| 20260506175434 | 13 | 32 | 4.8 | 8.0 | 0.10 | 0.10 | 0.10 | 90 | 1007.9 |
| 20260506174928 | 13 | 42 | 4.8 | 8.0 | 0.08 | 0.08 | 0.10 | 90 | 1008.1 |
| 20260506174915 | 13 | 34 | 4.8 | 16.1 | 0.08 | 0.08 | 0.08 | 90 | 1008.3 |
| 20260506173917 | 13 | 333 | 6.4 | 16.1 | 0.08 | 0.08 | 0.08 | 90 | 1008.5 |
| 20260506173411 | 13 | 53 | 9.7 | 19.3 | 0.05 | 0.05 | 0.05 | 89 | 1008.6 |
| 20260506172904 | 13 | 67 | 11.3 | 19.3 | 0.05 | 0.05 | 0.05 | 89 | 1008.8 |
| 20260506172357 | 13 | 62 | 12.9 | 19.3 | 0.03 | 0.03 | 0.03 | 89 | 1008.9 |
| 20260506172121 | 13 | 58 | 12.9 | 19.3 | 0.00 | 0.00 | 0.00 | 89 | 1008.8 |
| 20260506171349 | 13 | 50 | 12.9 | 22.5 | 0.00 | 0.00 | 0.00 | 89 | 1008.8 |
| 20260506170849 | 13 | 60 | 11.3 | 22.5 | 0.00 | 0.00 | 0.00 | 89 | 1008.9 |
| 20260506170607 | 13 | 60 | 8.0 | 17.7 | 0.00 | 0.00 | 0.00 | 89 | 1009.0 |
| 20260506165850 | 13 | 68 | 8.0 | 12.9 | 0.00 | 0.00 | 0.00 | 88 | 1009.1 |
| 20260506165612 | 13 | 68 | 8.0 | 12.9 | 0.00 | 0.00 | 0.00 | 88 | 1009.1 |
| 20260506164849 | 13 | 60 | 6.4 | 11.3 | 0.00 | 0.00 | 0.00 | 87 | 1009.0 |
| 20260506164349 | 14 | 77 | 6.4 | 12.9 | 0.00 | 0.00 | 0.00 | 87 | 1009.2 |
| 20260506163850 | 14 | 70 | 3.2 | 12.9 | 0.00 | 0.00 | 0.00 | 87 | 1009.3 |
| 20260506163613 | 14 | 96 | 3.2 | 6.4 | 0.00 | 0.00 | 0.00 | 87 | 1009.3 |
| 20260506162848 | 14 | 66 | 4.8 | 8.0 | 0.00 | 0.00 | 0.00 | 87 | 1009.2 |
| 20260506162349 | 14 | 82 | 4.8 | 8.0 | 0.00 | 0.00 | 0.00 | 87 | 1009.2 |
| 20260506161847 | 14 | 67 | 6.4 | 11.3 | 0.00 | 0.00 | 0.00 | 87 | 1009.2 |
| 20260506161347 | 14 | 63 | 6.4 | 11.3 | 0.00 | 0.00 | 0.00 | 87 | 1009.3 |
| 20260506160847 | 14 | 75 | 6.4 | 11.3 | 0.00 | 0.00 | 0.00 | 86 | 1009.4 |
| 20260506160348 | 14 | 56 | 4.8 | 9.7 | 0.00 | 0.00 | 0.00 | 86 | 1009.4 |
| 20260506155844 | 14 | 77 | 4.8 | 9.7 | 0.00 | 0.00 | 0.00 | 86 | 1009.6 |
| 20260506155346 | 14 | 71 | 3.2 | 6.4 | 0.00 | 0.00 | 0.00 | 86 | 1009.7 |
| 20260506155103 | 14 | 77 | 3.2 | 6.4 | 0.00 | 0.00 | 0.00 | 86 | 1009.7 |
| 20260506154603 | 14 | 74 | 1.6 | 8.0 | 0.00 | 0.00 | 0.00 | 86 | 1009.7 |
| 20260506153839 | 14 | 92 | 3.2 | 8.0 | 0.00 | 0.00 | 0.00 | 87 | 1009.9 |
| 20260506153340 | 14 | 101 | 3.2 | 6.4 | 0.00 | 0.00 | 0.00 | 87 | 1009.8 |
| 20260506152837 | 14 | 76 | 1.6 | 6.4 | 0.00 | 0.00 | 0.00 | 87 | 1009.6 |
| 20260506152826 | 14 | 90 | 4.8 | 9.7 | 0.00 | 0.00 | 0.00 | 87 | 1009.5 |
| 20260506151836 | 14 | 51 | 6.4 | 12.9 | 0.00 | 0.00 | 0.00 | 88 | 1009.5 |
| 20260506151335 | 14 | 49 | 8.0 | 12.9 | 0.00 | 0.00 | 0.00 | 88 | 1009.6 |
| 20260506150834 | 13 | 54 | 6.4 | 12.9 | 0.00 | 0.00 | 0.00 | 88 | 1009.6 |
| 20260506150558 | 13 | 55 | 6.4 | 9.7 | 0.00 | 0.00 | 0.00 | 88 | 1009.5 |
| 20260506150052 | 13 | 55 | 6.4 | 8.0 | 0.00 | 0.00 | 0.00 | 88 | 1009.7 |
| 20260506145334 | 13 | 46 | 6.4 | 8.0 | 0.00 | 0.00 | 0.00 | 88 | 1009.7 |
| 20260506144836 | 13 | 59 | 6.4 | 11.3 | 0.00 | 0.00 | 0.00 | 88 | 1009.9 |
| 20260506144332 | 14 | 81 | 6.4 | 12.9 | 0.00 | 0.00 | 0.00 | 87 | 1009.9 |
| 20260506143926 | 14 | 67 | 8.0 | 17.7 | 0.00 | 0.00 | 0.00 | 88 | 1010.0 |
| 20260506142830 | 14 | 59 | 12.9 | 17.7 | 0.00 | 0.00 | 0.00 | 87 | 1010.0 |
| 20260506142333 | 14 | 74 | 12.9 | 17.7 | 0.00 | 0.00 | 0.00 | 88 | 1009.9 |
| 20260506142053 | 14 | 73 | 14.5 | 19.3 | 0.00 | 0.00 | 0.00 | 88 | 1009.9 |
| 20260506141330 | 14 | 57 | 16.1 | 20.9 | 0.00 | 0.00 | 0.00 | 88 | 1010.0 |
| 20260506140833 | 14 | 65 | 14.5 | 20.9 | 0.00 | 0.00 | 0.00 | 88 | 1010.1 |
| 20260506140331 | 14 | 59 | 11.3 | 19.3 | 0.00 | 0.00 | 0.00 | 88 | 1010.2 |
| 20260506140314 | 14 | 71 | 11.3 | 20.9 | 0.00 | 0.00 | 0.00 | 88 | 1010.3 |
| 20260506135332 | 14 | 63 | 14.5 | 20.9 | 0.00 | 0.00 | 0.00 | 88 | 1010.1 |
| 20260506134831 | 14 | 79 | 17.7 | 20.9 | 0.00 | 0.00 | 0.00 | 88 | 1010.0 |
| 20260506134554 | 14 | 71 | 17.7 | 22.5 | 0.00 | 0.00 | 0.00 | 88 | 1010.1 |
| 20260506133830 | 14 | 65 | 16.1 | 22.5 | 0.00 | 0.00 | 0.00 | 88 | 1010.0 |
| 20260506133331 | 14 | 74 | 14.5 | 20.9 | 0.00 | 0.00 | 0.00 | 88 | 1009.9 |
| 20260506132829 | 14 | 75 | 12.9 | 17.7 | 0.00 | 0.00 | 0.00 | 88 | 1009.8 |
| 20260506132328 | 14 | 82 | 9.7 | 16.1 | 0.00 | 0.00 | 0.00 | 87 | 1009.7 |
| 20260506131831 | 14 | 65 | 8.0 | 16.1 | 0.00 | 0.00 | 0.00 | 87 | 1009.8 |
| 20260506131329 | 14 | 80 | 6.4 | 16.1 | 0.00 | 0.00 | 0.00 | 86 | 1009.7 |
| 20260506130827 | 15 | 90 | 3.2 | 16.1 | 0.00 | 0.00 | 0.00 | 86 | 1009.8 |
| 20260506130545 | 15 | 87 | 1.6 | 9.7 | 0.00 | 0.00 | 0.00 | 86 | 1009.7 |
| 20260506125828 | 15 | 92 | 3.2 | 6.4 | 0.00 | 0.00 | 0.00 | 87 | 1009.8 |
| 20260506125327 | 14 | 103 | 4.8 | 11.3 | 0.00 | 0.00 | 0.00 | 87 | 1010.0 |
| 20260506124828 | 14 | 87 | 6.4 | 12.9 | 0.00 | 0.00 | 0.00 | 87 | 1010.1 |
| 20260506124325 | 14 | 77 | 8.0 | 12.9 | 0.00 | 0.00 | 0.00 | 87 | 1010.2 |
| 20260506123824 | 14 | 92 | 8.0 | 12.9 | 0.00 | 0.00 | 0.00 | 87 | 1010.3 |
| 20260506123323 | 14 | 58 | 8.0 | 16.1 | 0.00 | 0.00 | 0.00 | 87 | 1010.4 |
| 20260506122824 | 14 | 65 | 9.7 | 16.1 | 0.00 | 0.00 | 0.00 | 87 | 1010.4 |
| 20260506122322 | 14 | 70 | 9.7 | 14.5 | 0.00 | 0.00 | 0.00 | 88 | 1010.4 |
| 20260506122054 | 14 | 63 | 11.3 | 16.1 | 0.00 | 0.00 | 0.00 | 87 | 1010.4 |
| 20260506121321 | 14 | 70 | 9.7 | 17.7 | 0.00 | 0.00 | 0.00 | 87 | 1010.5 |
| 20260506121044 | 14 | 70 | 6.4 | 17.7 | 0.00 | 0.00 | 0.00 | 87 | 1010.4 |
| 20260506120321 | 14 | 73 | 6.4 | 12.9 | 0.00 | 0.00 | 0.00 | 87 | 1010.3 |
| 20260506115816 | 14 | 94 | 6.4 | 12.9 | 0.00 | 0.00 | 0.00 | 88 | 1010.3 |
| 20260506115308 | 14 | 63 | 6.4 | 11.3 | 0.00 | 0.00 | 0.00 | 88 | 1010.2 |
| 20260506114803 | 14 | 65 | 6.4 | 11.3 | 0.00 | 0.00 | 0.00 | 88 | 1010.2 |
| 20260506114256 | 14 | 74 | 8.0 | 12.9 | 0.00 | 0.00 | 0.00 | 87 | 1010.3 |
| 20260506113751 | 14 | 64 | 8.0 | 14.5 | 0.00 | 0.00 | 0.00 | 87 | 1010.3 |
| 20260506113246 | 14 | 78 | 6.4 | 14.5 | 0.00 | 0.00 | 0.00 | 87 | 1010.3 |
| 20260506112739 | 15 | 60 | 4.8 | 9.7 | 0.00 | 0.00 | 0.00 | 87 | 1010.3 |
| 20260506112233 | 15 | 84 | 3.2 | 11.3 | 0.00 | 0.00 | 0.00 | 88 | 1010.3 |
| 20260506111727 | 14 | 91 | 3.2 | 11.3 | 0.00 | 0.00 | 0.00 | 88 | 1010.2 |
| 20260506111221 | 14 | 92 | 4.8 | 12.9 | 0.00 | 0.00 | 0.00 | 89 | 1010.3 |
| 20260506110716 | 13 | 109 | 6.4 | 14.5 | 0.00 | 0.00 | 0.00 | 90 | 1010.3 |
| 20260506110208 | 13 | 53 | 11.3 | 20.9 | 0.00 | 0.00 | 0.00 | 90 | 1010.2 |
| 20260506105703 | 13 | 80 | 14.5 | 20.9 | 0.00 | 0.00 | 0.00 | 89 | 1010.1 |
| 20260506105417 | 13 | 75 | 14.5 | 22.5 | 0.00 | 0.00 | 0.00 | 90 | 1010.1 |
| 20260506104650 | 13 | 76 | 12.9 | 20.9 | 0.00 | 0.00 | 0.00 | 90 | 1010.2 |
| 20260506104145 | 13 | 75 | 9.7 | 19.3 | 0.00 | 0.00 | 0.00 | 91 | 1010.3 |
| 20260506103639 | 13 | 94 | 6.4 | 16.1 | 0.00 | 0.00 | 0.00 | 91 | 1010.3 |
| 20260506103133 | 13 | 103 | 4.8 | 12.9 | 0.00 | 0.00 | 0.00 | 91 | 1010.3 |
| 20260506102847 | 13 | 94 | 3.2 | 11.3 | 0.00 | 0.00 | 0.00 | 91 | 1010.2 |
| 20260506102121 | 13 | 101 | 3.2 | 11.3 | 0.00 | 0.00 | 0.00 | 91 | 1010.2 |
| 20260506101615 | 13 | 105 | 6.4 | 16.1 | 0.00 | 0.00 | 0.00 | 91 | 1010.2 |
| 20260506101108 | 13 | 107 | 8.0 | 16.1 | 0.00 | 0.00 | 0.00 | 91 | 1010.0 |
| 20260506100603 | 13 | 76 | 9.7 | 17.7 | 0.00 | 0.00 | 0.00 | 91 | 1010.0 |
| 20260506100057 | 13 | 97 | 8.0 | 17.7 | 0.00 | 0.00 | 0.00 | 91 | 1010.1 |
| 20260506095553 | 13 | 95 | 6.4 | 14.5 | 0.00 | 0.00 | 0.00 | 91 | 1010.1 |
| 20260506095045 | 13 | 92 | 8.0 | 16.1 | 0.00 | 0.00 | 0.00 | 91 | 1010.1 |
| 20260506094542 | 13 | 101 | 8.0 | 16.1 | 0.00 | 0.00 | 0.00 | 91 | 1010.0 |
| 20260506094042 | 13 | 82 | 6.4 | 12.9 | 0.00 | 0.00 | 0.00 | 91 | 1010.0 |
| 20260506093542 | 13 | 97 | 6.4 | 12.9 | 0.00 | 0.00 | 0.00 | 91 | 1010.0 |
| 20260506093530 | 13 | 71 | 8.0 | 14.5 | 0.00 | 0.00 | 0.00 | 91 | 1009.9 |
| 20260506092802 | 13 | 67 | 9.7 | 16.1 | 0.00 | 0.00 | 0.00 | 90 | 1009.9 |
| 20260506092040 | 13 | 79 | 9.7 | 16.1 | 0.00 | 0.00 | 0.00 | 90 | 1010.1 |
| 20260506091536 | 13 | 57 | 6.4 | 14.5 | 0.00 | 0.00 | 0.00 | 91 | 1010.2 |
| 20260506091037 | 13 | 94 | 4.8 | 11.3 | 0.00 | 0.00 | 0.00 | 90 | 1010.0 |
| 20260506090536 | 13 | 98 | 4.8 | 14.5 | 0.00 | 0.00 | 0.00 | 90 | 1010.2 |
| 20260506090035 | 13 | 77 | 4.8 | 14.5 | 0.00 | 0.00 | 0.00 | 90 | 1010.2 |
| 20260506085535 | 13 | 80 | 6.4 | 16.1 | 0.00 | 0.00 | 0.00 | 90 | 1010.2 |
| 20260506085035 | 13 | 96 | 9.7 | 22.5 | 0.00 | 0.00 | 0.00 | 90 | 1010.2 |
| 20260506084536 | 13 | 83 | 9.7 | 22.5 | 0.00 | 0.00 | 0.00 | 91 | 1010.3 |
| 20260506084031 | 13 | 80 | 6.4 | 16.1 | 0.00 | 0.00 | 0.00 | 91 | 1010.3 |
| 20260506083532 | 12 | 80 | 3.2 | 12.9 | 0.00 | 0.00 | 0.00 | 91 | 1010.3 |
| 20260506083035 | 12 | 79 | 3.2 | 11.3 | 0.00 | 0.00 | 0.00 | 91 | 1010.3 |
| 20260506082803 | 12 | 85 | 1.6 | 11.3 | 0.00 | 0.00 | 0.00 | 91 | 1010.3 |
| 20260506082029 | 12 | 96 | 0.0 | 4.8 | 0.00 | 0.00 | 0.00 | 90 | 1010.4 |
| 20260506081527 | 12 | 96 | 1.6 | 4.8 | 0.00 | 0.00 | 0.00 | 90 | 1010.3 |
| 20260506081022 | 12 | 69 | 4.8 | 8.0 | 0.00 | 0.00 | 0.00 | 90 | 1010.3 |
| 20260506080515 | 13 | 67 | 6.4 | 11.3 | 0.00 | 0.00 | 0.00 | 90 | 1010.4 |
| 20260506073506 | 13 | 76 | 9.7 | 16.1 | 0.00 | 0.00 | 0.00 | 89 | 1010.4 |
| 20260506073003 | 13 | 69 | 9.7 | 16.1 | 0.00 | 0.00 | 0.00 | 89 | 1010.5 |
| 20260506072505 | 13 | 74 | 8.0 | 16.1 | 0.00 | 0.00 | 0.00 | 89 | 1010.4 |
| 20260506072005 | 13 | 67 | 4.8 | 16.1 | 0.00 | 0.00 | 0.00 | 89 | 1010.5 |
| 20260506071503 | 13 | 69 | 3.2 | 12.9 | 0.00 | 0.00 | 0.00 | 88 | 1010.5 |
| 20260506071002 | 13 | 61 | 3.2 | 11.3 | 0.00 | 0.00 | 0.00 | 88 | 1010.5 |
| 20260506070502 | 13 | 94 | 1.6 | 11.3 | 0.00 | 0.00 | 0.00 | 88 | 1010.5 |
| 20260506070228 | 13 | 79 | 0.0 | 3.2 | 0.00 | 0.00 | 0.00 | 88 | 1010.5 |
| 20260506062501 | 13 | 69 | 4.8 | 12.9 | 0.00 | 0.00 | 0.00 | 87 | 1010.4 |
| 20260506062003 | 13 | 106 | 3.2 | 17.7 | 0.00 | 0.00 | 0.00 | 87 | 1010.6 |
| 20260506061501 | 13 | 93 | 3.2 | 17.7 | 0.00 | 0.00 | 0.00 | 86 | 1010.5 |
| 20260506061003 | 14 | 103 | 6.4 | 24.1 | 0.00 | 0.00 | 0.00 | 86 | 1010.5 |
| 20260506060503 | 14 | 94 | 8.0 | 24.1 | 0.00 | 0.00 | 0.00 | 86 | 1010.5 |
| 20260506051001 | 14 | 81 | 9.7 | 19.3 | 0.00 | 0.00 | 0.00 | 84 | 1010.7 |
| 20260506050733 | 14 | 61 | 12.9 | 19.3 | 0.00 | 0.00 | 0.00 | 84 | 1010.9 |
| 20260506050222 | 14 | 89 | 12.9 | 19.3 | 0.00 | 0.00 | 0.00 | 84 | 1010.8 |
| 20260506045000 | 14 | 74 | 4.8 | 12.9 | 0.00 | 0.00 | 0.00 | 85 | 1010.8 |
| 20260506044459 | 14 | 91 | 3.2 | 16.1 | 0.00 | 0.00 | 0.00 | 85 | 1010.9 |
| 20260506043959 | 14 | 111 | 3.2 | 16.1 | 0.00 | 0.00 | 0.00 | 85 | 1010.9 |
| 20260506043457 | 14 | 93 | 8.0 | 25.7 | 0.00 | 0.00 | 0.00 | 84 | 1010.9 |
| 20260506042958 | 14 | 90 | 14.5 | 25.7 | 0.00 | 0.00 | 0.00 | 84 | 1011.0 |
| 20260506042458 | 14 | 95 | 14.5 | 25.7 | 0.00 | 0.00 | 0.00 | 84 | 1010.9 |
| 20260506041957 | 15 | 61 | 12.9 | 25.7 | 0.00 | 0.00 | 0.00 | 84 | 1011.0 |
| 20260506041457 | 14 | 93 | 9.7 | 22.5 | 0.00 | 0.00 | 0.00 | 85 | 1011.1 |
| 20260506040959 | 14 | 79 | 6.4 | 16.1 | 0.00 | 0.00 | 0.00 | 85 | 1011.0 |
| 20260506040451 | 14 | 92 | 4.8 | 12.9 | 0.00 | 0.00 | 0.00 | 85 | 1011.0 |
| 20260506040204 | 14 | 103 | 4.8 | 14.5 | 0.00 | 0.00 | 0.00 | 85 | 1011.0 |
| 20260506035439 | 14 | 92 | 4.8 | 14.5 | 0.00 | 0.00 | 0.00 | 85 | 1011.0 |
| 20260506035158 | 14 | 78 | 4.8 | 19.3 | 0.00 | 0.00 | 0.00 | 85 | 1011.0 |
| 20260506034427 | 14 | 106 | 6.4 | 19.3 | 0.00 | 0.00 | 0.00 | 85 | 1011.0 |
| 20260506033921 | 14 | 98 | 8.0 | 20.9 | 0.00 | 0.00 | 0.00 | 84 | 1010.9 |
| 20260506033415 | 15 | 79 | 11.3 | 20.9 | 0.00 | 0.00 | 0.00 | 84 | 1010.9 |
| 20260506032909 | 15 | 65 | 9.7 | 19.3 | 0.00 | 0.00 | 0.00 | 84 | 1010.8 |
| 20260506032627 | 15 | 69 | 8.0 | 19.3 | 0.00 | 0.00 | 0.00 | 83 | 1010.7 |
| 20260506031857 | 15 | 93 | 6.4 | 17.7 | 0.00 | 0.00 | 0.00 | 83 | 1010.8 |
| 20260506031617 | 15 | 100 | 4.8 | 14.5 | 0.00 | 0.00 | 0.00 | 83 | 1010.9 |
| 20260506030845 | 14 | 112 | 4.8 | 14.5 | 0.00 | 0.00 | 0.00 | 83 | 1010.8 |
| 20260506030338 | 14 | 154 | 3.2 | 12.9 | 0.00 | 0.00 | 0.00 | 84 | 1010.6 |
| 20260506025833 | 14 | 104 | 6.4 | 17.7 | 0.00 | 0.00 | 0.00 | 84 | 1010.4 |
| 20260506025327 | 14 | 109 | 8.0 | 20.9 | 0.00 | 0.00 | 0.00 | 83 | 1010.4 |
| 20260506025043 | 14 | 79 | 9.7 | 20.9 | 0.00 | 0.00 | 0.00 | 83 | 1010.4 |
| 20260506024315 | 14 | 57 | 11.3 | 19.3 | 0.00 | 0.00 | 0.00 | 82 | 1010.4 |
| 20260506023808 | 14 | 72 | 12.9 | 20.9 | 0.00 | 0.00 | 0.00 | 82 | 1010.5 |
| 20260506023303 | 14 | 76 | 19.3 | 33.8 | 0.00 | 0.00 | 0.00 | 81 | 1010.4 |
| 20260506022757 | 15 | 66 | 27.4 | 41.8 | 0.00 | 0.00 | 0.00 | 80 | 1010.4 |
| 20260506022251 | 15 | 79 | 33.8 | 41.8 | 0.00 | 0.00 | 0.00 | 80 | 1010.3 |
| 20260506021744 | 15 | 67 | 32.2 | 41.8 | 0.00 | 0.00 | 0.00 | 80 | 1010.2 |
| 20260506021240 | 15 | 69 | 29.0 | 40.2 | 0.00 | 0.00 | 0.00 | 80 | 1010.1 |
| 20260506021040 | 15 | 72 | 30.6 | 38.6 | 0.00 | 0.00 | 0.00 | 80 | 1010.1 |
| 20260506015722 | 15 | 78 | 32.2 | 41.8 | 0.00 | 0.00 | 0.00 | 78 | 1010.0 |
| 20260506015216 | 15 | 70 | 27.4 | 40.2 | 0.00 | 0.00 | 0.00 | 79 | 1010.0 |
| 20260506014939 | 15 | 69 | 20.9 | 40.2 | 0.00 | 0.00 | 0.00 | 79 | 1009.8 |
| 20260506014202 | 15 | 75 | 11.3 | 25.7 | 0.00 | 0.00 | 0.00 | 80 | 1009.8 |
| 20260506013700 | 15 | 49 | 4.8 | 17.7 | 0.00 | 0.00 | 0.00 | 80 | 1009.7 |
| 20260506013412 | 15 | 98 | 3.2 | 11.3 | 0.00 | 0.00 | 0.00 | 79 | 1009.8 |
| 20260506012645 | 15 | 124 | 1.6 | 9.7 | 0.00 | 0.00 | 0.00 | 79 | 1009.8 |
| 20260506012138 | 15 | 102 | 3.2 | 11.3 | 0.00 | 0.00 | 0.00 | 79 | 1009.8 |
| 20260506011633 | 15 | 125 | 4.8 | 11.3 | 0.00 | 0.00 | 0.00 | 79 | 1009.8 |
| 20260506011130 | 15 | 96 | 3.2 | 11.3 | 0.00 | 0.00 | 0.00 | 79 | 1009.8 |
| 20260506010621 | 15 | 113 | 3.2 | 11.3 | 0.00 | 0.00 | 0.00 | 79 | 1009.6 |
| 20260506010115 | 15 | 107 | 3.2 | 12.9 | 0.00 | 0.00 | 0.00 | 79 | 1009.5 |
| 20260506005610 | 15 | 107 | 4.8 | 14.5 | 0.00 | 0.00 | 0.00 | 79 | 1009.3 |
| 20260506005102 | 15 | 103 | 4.8 | 14.5 | 0.00 | 0.00 | 0.00 | 79 | 1009.2 |
| 20260506004557 | 15 | 113 | 4.8 | 17.7 | 0.00 | 0.00 | 0.00 | 80 | 1009.3 |
| 20260506004051 | 15 | 81 | 3.2 | 17.7 | 0.00 | 0.00 | 0.00 | 81 | 1009.2 |
| 20260506003545 | 15 | 100 | 1.6 | 12.9 | 0.00 | 0.00 | 0.00 | 81 | 1009.2 |
| 20260506003302 | 14 | 136 | 1.6 | 6.4 | 0.00 | 0.00 | 0.00 | 80 | 1009.2 |
| 20260506002533 | 15 | 169 | 3.2 | 6.4 | 0.00 | 0.00 | 0.00 | 80 | 1009.1 |
| 20260506002028 | 15 | 144 | 3.2 | 8.0 | 0.00 | 0.00 | 0.00 | 80 | 1008.9 |
| 20260506001521 | 14 | 147 | 3.2 | 8.0 | 0.00 | 0.00 | 0.00 | 80 | 1008.8 |
| 20260506001015 | 14 | 159 | 3.2 | 6.4 | 0.00 | 0.00 | 0.00 | 80 | 1008.6 |
| 20260506000511 | 14 | 159 | 3.2 | 6.4 | 0.00 | 0.00 | 0.00 | 80 | 1008.4 |
| 20260506000003 | 14 | 157 | 1.6 | 9.7 | 0.00 | 0.00 | 0.00 | 81 | 1008.3 |
| 20260505235501 | 14 | 95 | 3.2 | 12.9 | 0.00 | 0.00 | 0.00 | 80 | 1008.2 |
| 20260505234959 | 14 | 121 | 3.2 | 12.9 | 0.00 | 0.00 | 0.00 | 80 | 1008.1 |
| 20260505234500 | 15 | 86 | 8.0 | 20.9 | 0.00 | 0.00 | 0.00 | 80 | 1008.1 |
| 20260505233956 | 15 | 79 | 16.1 | 30.6 | 0.00 | 0.00 | 0.00 | 79 | 1008.1 |
| 20260505233719 | 15 | 76 | 24.1 | 35.4 | 0.00 | 0.00 | 0.00 | 79 | 1008.1 |
| 20260505232955 | 15 | 61 | 24.1 | 35.4 | 0.00 | 0.00 | 0.00 | 78 | 1008.1 |
| 20260505232457 | 15 | 63 | 16.1 | 35.4 | 0.00 | 0.00 | 0.00 | 77 | 1008.3 |
| 20260505231955 | 15 | 44 | 6.4 | 19.3 | 0.00 | 0.00 | 0.00 | 76 | 1008.3 |
| 20260505231457 | 16 | 69 | 3.2 | 11.3 | 0.00 | 0.00 | 0.00 | 74 | 1008.2 |
| 20260505230957 | 16 | 123 | 4.8 | 20.9 | 0.00 | 0.00 | 0.00 | 73 | 1008.3 |
| 20260505230458 | 16 | 76 | 6.4 | 20.9 | 0.00 | 0.00 | 0.00 | 73 | 1008.1 |
| 20260505225957 | 16 | 107 | 8.0 | 35.4 | 0.00 | 0.00 | 0.00 | 72 | 1008.2 |
| 20260505225717 | 17 | 56 | 9.7 | 35.4 | 0.00 | 0.00 | 0.00 | 71 | 1008.4 |
| 20260505224957 | 17 | 103 | 16.1 | 35.4 | 0.00 | 0.00 | 0.00 | 70 | 1008.5 |
| 20260505224454 | 17 | 80 | 19.3 | 35.4 | 0.00 | 0.00 | 0.00 | 70 | 1008.4 |
| 20260505223955 | 17 | 69 | 22.5 | 38.6 | 0.00 | 0.00 | 0.00 | 71 | 1008.5 |
| 20260505223451 | 17 | 13 | 22.5 | 38.6 | 0.00 | 0.00 | 0.00 | 70 | 1008.5 |
| 20260505222951 | 17 | 101 | 22.5 | 41.8 | 0.00 | 0.00 | 0.00 | 71 | 1008.5 |
| 20260505222452 | 17 | 55 | 22.5 | 41.8 | 0.00 | 0.00 | 0.00 | 70 | 1008.4 |
| 20260505221950 | 17 | 51 | 19.3 | 30.6 | 0.00 | 0.00 | 0.00 | 72 | 1008.4 |
| 20260505221450 | 17 | 78 | 11.3 | 30.6 | 0.00 | 0.00 | 0.00 | 71 | 1008.3 |
| 20260505221212 | 17 | 88 | 8.0 | 25.7 | 0.00 | 0.00 | 0.00 | 73 | 1008.3 |
| 20260505220451 | 17 | 77 | 8.0 | 24.1 | 0.00 | 0.00 | 0.00 | 73 | 1008.1 |
| 20260505215948 | 17 | 79 | 11.3 | 24.1 | 0.00 | 0.00 | 0.00 | 73 | 1008.3 |
| 20260505215447 | 17 | 51 | 11.3 | 22.5 | 0.00 | 0.00 | 0.00 | 73 | 1008.3 |
| 20260505214949 | 17 | 81 | 14.5 | 27.4 | 0.00 | 0.00 | 0.00 | 74 | 1008.2 |
| 20260505214443 | 17 | 75 | 14.5 | 27.4 | 0.00 | 0.00 | 0.00 | 73 | 1008.1 |
| 20260505213945 | 17 | 49 | 11.3 | 25.7 | 0.00 | 0.00 | 0.00 | 73 | 1008.2 |
| 20260505213444 | 17 | 49 | 11.3 | 17.7 | 0.00 | 0.00 | 0.00 | 74 | 1008.2 |
| 20260505212943 | 17 | 80 | 9.7 | 19.3 | 0.00 | 0.00 | 0.00 | 73 | 1008.2 |
| 20260505212445 | 16 | 69 | 4.8 | 19.3 | 0.00 | 0.00 | 0.00 | 75 | 1008.3 |
| 20260505211943 | 16 | 66 | 3.2 | 8.0 | 0.00 | 0.00 | 0.00 | 75 | 1008.4 |
| 20260505211446 | 16 | 64 | 1.6 | 8.0 | 0.00 | 0.00 | 0.00 | 74 | 1008.3 |
| 20260505210943 | 16 | 141 | 1.6 | 9.7 | 0.00 | 0.00 | 0.00 | 77 | 1008.2 |
| 20260505210445 | 16 | 207 | 3.2 | 9.7 | 0.00 | 0.00 | 0.00 | 76 | 1008.1 |
| 20260505210206 | 16 | 105 | 4.8 | 9.7 | 0.00 | 0.00 | 0.00 | 76 | 1008.0 |
| 20260505205445 | 16 | 309 | 3.2 | 9.7 | 0.00 | 0.00 | 0.00 | 76 | 1008.0 |
| 20260505204945 | 16 | 71 | 4.8 | 12.9 | 0.00 | 0.00 | 0.00 | 77 | 1008.0 |
| 20260505204443 | 16 | 38 | 4.8 | 12.9 | 0.00 | 0.00 | 0.00 | 77 | 1007.9 |
| 20260505203942 | 16 | 300 | 3.2 | 9.7 | 0.00 | 0.00 | 0.00 | 77 | 1007.9 |
| 20260505203703 | 16 | 259 | 3.2 | 8.0 | 0.00 | 0.00 | 0.00 | 78 | 1008.0 |
| 20260505202940 | 15 | 181 | 1.6 | 6.4 | 0.00 | 0.00 | 0.00 | 79 | 1008.0 |
| 20260505202442 | 15 | 181 | 1.6 | 6.4 | 0.00 | 0.00 | 0.00 | 80 | 1008.1 |
| 20260505202209 | 15 | 217 | 1.6 | 6.4 | 0.00 | 0.00 | 0.00 | 81 | 1008.1 |
| 20260505201437 | 15 | 151 | 3.2 | 6.4 | 0.00 | 0.00 | 0.00 | 80 | 1008.1 |
| 20260505201204 | 15 | 73 | 6.4 | 11.3 | 0.00 | 0.00 | 0.00 | 79 | 1008.2 |
| 20260505200436 | 16 | 336 | 9.7 | 24.1 | 0.00 | 0.00 | 0.00 | 78 | 1008.2 |
| 20260505195936 | 16 | 325 | 17.7 | 43.5 | 0.00 | 0.00 | 0.00 | 76 | 1008.3 |
| 20260505195648 | 16 | 53 | 20.9 | 43.5 | 0.00 | 0.00 | 0.00 | 75 | 1008.3 |
| 20260505194925 | 16 | 59 | 17.7 | 30.6 | 0.00 | 0.00 | 0.00 | 76 | 1008.4 |
| 20260505194418 | 16 | 49 | 14.5 | 24.1 | 0.00 | 0.00 | 0.00 | 76 | 1008.5 |
| 20260505194136 | 16 | 65 | 8.0 | 22.5 | 0.00 | 0.00 | 0.00 | 76 | 1008.6 |
| 20260505193406 | 16 | 46 | 3.2 | 9.7 | 0.00 | 0.00 | 0.00 | 77 | 1008.7 |